createdAt,value
2023-03-12T00:02:18.053Z,4.87
2023-03-12T00:04:45.289Z,4.33
2023-03-12T00:07:12.670Z,4.70
2023-03-12T00:09:40.347Z,4.70
2023-03-12T00:12:08.245Z,4.30
2023-03-12T00:14:36.522Z,4.27
2023-03-12T00:17:03.886Z,4.30
2023-03-12T00:19:31.205Z,4.60
2023-03-12T00:21:58.499Z,5.23
2023-03-12T00:24:25.708Z,4.67
2023-03-12T00:26:53.006Z,4.77
2023-03-12T00:29:20.220Z,4.57
2023-03-12T00:31:47.944Z,4.17
2023-03-12T00:34:15.265Z,4.07
2023-03-12T00:36:42.495Z,4.17
2023-03-12T00:39:10.825Z,4.10
2023-03-12T00:41:38.091Z,3.77
2023-03-12T00:44:05.361Z,4.23
2023-03-12T00:46:32.602Z,3.60
2023-03-12T00:49:00.011Z,3.70
2023-03-12T00:51:27.355Z,3.60
2023-03-12T00:53:56.388Z,3.50
2023-03-12T00:56:25.157Z,4.10
2023-03-12T00:58:52.580Z,2.90
2023-03-12T01:01:20.190Z,3.87
2023-03-12T01:03:47.876Z,3.50
2023-03-12T01:06:15.129Z,3.60
2023-03-12T01:08:43.002Z,3.73
2023-03-12T01:11:14.983Z,3.73
2023-03-12T01:13:42.238Z,3.47
2023-03-12T01:16:10.081Z,4.30
2023-03-12T01:18:37.373Z,4.80
2023-03-12T01:21:05.724Z,3.83
2023-03-12T01:23:33.174Z,4.20
2023-03-12T01:26:00.457Z,3.57
2023-03-12T01:28:28.061Z,3.43
2023-03-12T01:30:55.416Z,3.70
2023-03-12T01:33:23.181Z,4.20
2023-03-12T01:35:50.707Z,3.77
2023-03-12T01:38:19.302Z,4.07
2023-03-12T01:40:46.806Z,3.67
2023-03-12T01:43:28.396Z,3.37
2023-03-12T01:46:26.378Z,3.87
2023-03-12T01:49:09.276Z,3.90
2023-03-12T01:52:11.225Z,3.60
2023-03-12T01:55:11.232Z,3.90
2023-03-12T01:57:47.888Z,4.37
2023-03-12T02:00:22.419Z,3.60
2023-03-12T02:02:54.442Z,3.77
2023-03-12T02:05:58.817Z,3.50
2023-03-12T02:08:26.568Z,3.70
2023-03-12T02:10:53.942Z,3.33
2023-03-12T02:13:21.380Z,3.90
2023-03-12T02:15:48.799Z,3.60
2023-03-12T02:18:19.269Z,3.50
2023-03-12T02:21:18.391Z,4.33
2023-03-12T02:24:02.171Z,4.43
2023-03-12T02:26:32.386Z,4.70
2023-03-12T02:29:01.670Z,5.00
2023-03-12T02:31:38.660Z,5.07
2023-03-12T02:34:07.544Z,4.60
2023-03-12T02:36:37.113Z,4.47
2023-03-12T02:39:06.139Z,4.37
2023-03-12T02:41:41.788Z,4.20
2023-03-12T02:44:18.195Z,4.03
2023-03-12T02:46:51.703Z,4.60
2023-03-12T02:49:20.912Z,4.27
2023-03-12T02:51:49.449Z,4.00
2023-03-12T02:54:19.698Z,4.43
2023-03-12T02:56:48.721Z,4.30
2023-03-12T02:59:16.651Z,4.07
2023-03-12T03:01:45.479Z,3.63
2023-03-12T03:04:13.925Z,3.73
2023-03-12T03:06:44.320Z,4.20
2023-03-12T03:09:12.361Z,4.00
2023-03-12T03:11:39.759Z,4.13
2023-03-12T03:14:08.799Z,3.80
2023-03-12T03:16:36.644Z,3.90
2023-03-12T03:19:05.040Z,3.70
2023-03-12T03:21:32.966Z,3.90
2023-03-12T03:24:00.372Z,3.73
2023-03-12T03:26:27.644Z,3.73
2023-03-12T03:28:55.503Z,4.30
2023-03-12T03:31:22.857Z,3.57
2023-03-12T03:33:51.588Z,3.10
2023-03-12T03:36:19.413Z,3.13
2023-03-12T03:38:55.150Z,2.70
2023-03-12T03:41:23.410Z,3.50
2023-03-12T03:43:50.995Z,3.37
2023-03-12T03:46:20.924Z,3.33
2023-03-12T03:48:55.794Z,3.23
2023-03-12T03:51:23.760Z,3.43
2023-03-12T03:53:55.930Z,3.40
2023-03-12T03:56:23.480Z,3.37
2023-03-12T03:58:51.195Z,3.03
2023-03-12T04:01:21.355Z,2.90
2023-03-12T04:03:50.226Z,3.03
2023-03-12T04:06:18.029Z,3.23
2023-03-12T04:08:45.284Z,3.30
2023-03-12T04:11:21.298Z,3.50
2023-03-12T04:13:49.296Z,3.63
2023-03-12T04:16:19.241Z,3.30
2023-03-12T04:18:48.180Z,3.27
2023-03-12T04:21:16.958Z,2.90
2023-03-12T04:23:45.188Z,2.93
2023-03-12T04:26:14.139Z,3.03
2023-03-12T04:28:41.491Z,2.90
2023-03-12T04:31:12.765Z,2.73
2023-03-12T04:33:44.729Z,3.37
2023-03-12T04:36:13.312Z,2.90
2023-03-12T04:38:42.753Z,2.50
2023-03-12T04:41:14.120Z,2.77
2023-03-12T04:44:01.701Z,2.40
2023-03-12T04:46:30.142Z,3.03
2023-03-12T04:48:58.476Z,2.70
2023-03-12T04:51:25.767Z,2.87
2023-03-12T04:53:53.048Z,3.00
2023-03-12T04:56:20.438Z,2.53
2023-03-12T04:58:48.085Z,3.40
2023-03-12T05:01:36.664Z,3.13
2023-03-12T05:04:09.519Z,2.80
2023-03-12T05:06:37.539Z,3.40
2023-03-12T05:09:05.202Z,3.53
2023-03-12T05:11:32.836Z,3.13
2023-03-12T05:14:00.095Z,3.17
2023-03-12T05:16:28.642Z,3.50
2023-03-12T05:18:56.430Z,3.03
2023-03-12T05:21:25.723Z,3.07
2023-03-12T05:23:55.404Z,3.03
2023-03-12T05:26:31.921Z,2.80
2023-03-12T05:29:06.775Z,2.93
2023-03-12T05:31:35.586Z,3.17
2023-03-12T05:34:05.859Z,3.20
2023-03-12T05:36:36.930Z,3.40
2023-03-12T05:39:05.397Z,2.90
2023-03-12T05:41:34.443Z,2.90
2023-03-12T05:44:11.317Z,3.10
2023-03-12T05:46:38.805Z,3.20
2023-03-12T05:49:06.175Z,3.20
2023-03-12T05:51:34.835Z,2.90
2023-03-12T05:54:03.168Z,3.40
2023-03-12T05:56:30.533Z,3.47
2023-03-12T05:58:57.797Z,3.60
2023-03-12T06:01:28.732Z,3.17
2023-03-12T06:03:58.454Z,2.67
2023-03-12T06:06:26.758Z,3.50
2023-03-12T06:08:54.752Z,3.37
2023-03-12T06:11:22.045Z,3.20
2023-03-12T06:13:49.388Z,2.90
2023-03-12T06:16:21.514Z,2.80
2023-03-12T06:18:53.906Z,3.07
2023-03-12T06:21:25.487Z,3.07
2023-03-12T06:23:54.331Z,3.47
2023-03-12T06:26:27.573Z,3.17
2023-03-12T06:28:54.971Z,3.53
2023-03-12T06:31:23.171Z,3.23
2023-03-12T06:33:51.062Z,3.10
2023-03-12T06:36:18.425Z,6.03
2023-03-12T06:38:45.935Z,10.90
2023-03-12T06:41:16.225Z,17.30
2023-03-12T06:43:44.777Z,10.00
2023-03-12T06:46:15.592Z,9.20
2023-03-12T06:48:43.072Z,6.97
2023-03-12T06:51:12.358Z,6.90
2023-03-12T06:53:42.184Z,10.73
2023-03-12T06:56:10.946Z,11.50
2023-03-12T06:58:38.537Z,10.83
2023-03-12T07:01:06.765Z,6.60
2023-03-12T07:03:34.050Z,4.20
2023-03-12T07:06:01.385Z,4.40
2023-03-12T07:08:32.816Z,4.17
2023-03-12T07:11:04.027Z,3.50
2023-03-12T07:13:31.682Z,3.73
2023-03-12T07:15:58.963Z,4.10
2023-03-12T07:18:26.247Z,4.70
2023-03-12T07:20:54.426Z,4.87
2023-03-12T07:23:22.326Z,9.83
2023-03-12T07:25:49.960Z,4.47
2023-03-12T07:28:18.380Z,3.50
2023-03-12T07:30:50.570Z,3.67
2023-03-12T07:33:20.417Z,4.27
2023-03-12T07:35:51.445Z,3.40
2023-03-12T07:38:20.248Z,2.80
2023-03-12T07:40:52.918Z,2.77
2023-03-12T07:43:21.867Z,3.10
2023-03-12T07:45:51.846Z,3.30
2023-03-12T07:48:20.441Z,4.10
2023-03-12T07:50:48.707Z,3.07
2023-03-12T07:53:17.209Z,8.23
2023-03-12T07:55:46.564Z,6.77
2023-03-12T07:58:15.752Z,12.67
2023-03-12T08:00:43.078Z,12.93
2023-03-12T08:03:10.666Z,23.63
2023-03-12T08:05:38.371Z,28.17
2023-03-12T08:08:06.219Z,24.33
2023-03-12T08:10:33.418Z,10.67
2023-03-12T08:13:00.777Z,3.10
2023-03-12T08:15:28.065Z,3.93
2023-03-12T08:17:55.210Z,13.10
2023-03-12T08:20:22.404Z,4.40
2023-03-12T08:22:49.615Z,6.00
2023-03-12T08:25:18.726Z,8.30
2023-03-12T08:27:45.853Z,13.50
2023-03-12T08:30:13.384Z,3.90
2023-03-12T08:32:41.010Z,2.77
2023-03-12T08:35:10.297Z,3.00
2023-03-12T08:37:37.681Z,2.10
2023-03-12T08:40:14.600Z,14.27
2023-03-12T08:42:43.906Z,13.80
2023-03-12T08:45:12.652Z,8.07
2023-03-12T08:47:42.019Z,9.53
2023-03-12T08:50:11.815Z,2.23
2023-03-12T08:52:39.519Z,3.37
2023-03-12T08:55:35.466Z,2.30
2023-03-12T08:58:02.732Z,6.20
2023-03-12T09:00:29.993Z,3.63
2023-03-12T09:02:58.599Z,10.40
2023-03-12T09:05:28.511Z,3.80
2023-03-12T09:07:56.521Z,12.53
2023-03-12T09:10:25.528Z,10.07
2023-03-12T09:12:52.815Z,14.30
2023-03-12T09:15:20.121Z,2.53
2023-03-12T09:17:48.343Z,2.20
2023-03-12T09:20:15.536Z,1.93
2023-03-12T09:22:44.396Z,6.40
2023-03-12T09:25:12.443Z,2.47
2023-03-12T09:27:47.868Z,1.80
2023-03-12T09:30:18.190Z,2.57
2023-03-12T09:32:46.903Z,1.80
2023-03-12T09:35:15.910Z,2.10
2023-03-12T09:37:43.625Z,6.57
2023-03-12T09:40:19.800Z,3.33
2023-03-12T09:43:33.770Z,1.40
2023-03-12T09:46:02.095Z,1.40
2023-03-12T09:48:37.559Z,1.90
2023-03-12T09:51:45.847Z,2.13
2023-03-12T09:54:47.503Z,2.93
2023-03-12T09:57:22.533Z,3.60
2023-03-12T09:59:51.238Z,11.03
2023-03-12T10:02:45.047Z,10.50
2023-03-12T10:05:24.531Z,4.30
2023-03-12T10:08:13.706Z,11.30
2023-03-12T10:11:21.541Z,2.60
2023-03-12T10:14:24.145Z,4.87
2023-03-12T10:16:51.752Z,6.97
2023-03-12T10:19:37.832Z,3.33
2023-03-12T10:22:33.061Z,2.40
2023-03-12T10:25:35.735Z,2.20
2023-03-12T10:28:30.832Z,1.70
2023-03-12T10:31:04.214Z,1.63
2023-03-12T10:33:43.733Z,2.00
2023-03-12T10:36:19.208Z,1.90
2023-03-12T10:38:48.869Z,1.30
2023-03-12T10:41:25.902Z,1.63
2023-03-12T10:43:54.522Z,1.70
2023-03-12T10:46:41.633Z,1.70
2023-03-12T10:49:29.399Z,1.70
2023-03-12T10:52:30.600Z,2.30
2023-03-12T10:54:59.247Z,1.80
2023-03-12T10:57:40.194Z,3.60
2023-03-12T11:00:12.707Z,3.70
2023-03-12T11:02:46.322Z,2.20
2023-03-12T11:05:23.937Z,1.60
2023-03-12T11:07:52.376Z,1.57
2023-03-12T11:10:37.571Z,1.70
2023-03-12T11:13:21.219Z,1.60
2023-03-12T11:15:48.908Z,1.90
2023-03-12T11:18:27.369Z,1.70
2023-03-12T11:21:09.967Z,1.87
2023-03-12T11:23:39.806Z,2.33
2023-03-12T11:26:20.572Z,3.10
2023-03-12T11:28:51.116Z,3.00
2023-03-12T11:31:50.036Z,2.13
2023-03-12T11:34:29.176Z,2.27
2023-03-12T11:37:13.404Z,2.53
2023-03-12T11:39:59.452Z,2.15
2023-03-12T11:43:03.814Z,2.00
2023-03-12T11:46:25.094Z,2.97
2023-03-12T11:49:21.856Z,1.95
2023-03-12T11:52:10.849Z,2.22
2023-03-12T11:54:55.329Z,2.17
2023-03-12T11:57:53.760Z,2.63
2023-03-12T12:00:37.345Z,2.38
2023-03-12T12:03:23.338Z,2.03
2023-03-12T12:06:00.573Z,2.10
2023-03-12T12:09:01.162Z,2.20
2023-03-12T12:12:20.344Z,2.13
2023-03-12T12:15:06.165Z,1.95
2023-03-12T12:17:46.552Z,2.60
2023-03-12T12:20:44.343Z,2.15
2023-03-12T12:23:30.458Z,3.40
2023-03-12T12:26:08.720Z,2.50
2023-03-12T12:29:03.943Z,2.25
2023-03-12T12:31:51.835Z,2.80
2023-03-12T12:34:31.408Z,3.42
2023-03-12T12:37:24.395Z,3.20
2023-03-12T12:40:08.948Z,2.38
2023-03-12T12:42:50.021Z,2.10
2023-03-12T12:45:19.332Z,2.35
2023-03-12T12:48:11.871Z,2.30
2023-03-12T12:50:40.166Z,2.65
2023-03-12T12:53:45.952Z,2.83
2023-03-12T12:56:26.815Z,2.50
2023-03-12T12:59:23.837Z,2.67
2023-03-12T13:01:54.974Z,2.80
2023-03-12T13:04:30.933Z,3.13
2023-03-12T13:07:04.506Z,3.13
2023-03-12T13:09:38.586Z,3.40
2023-03-12T13:12:13.940Z,3.10
2023-03-12T13:14:44.399Z,3.23
2023-03-12T13:17:27.516Z,3.30
2023-03-12T13:20:11.185Z,3.60
2023-03-12T13:22:38.740Z,3.20
2023-03-12T13:25:30.947Z,28.27
2023-03-12T13:28:22.371Z,4.17
2023-03-12T13:30:52.015Z,4.00
2023-03-12T13:33:36.543Z,3.17
2023-03-12T13:36:23.975Z,4.73
2023-03-12T13:38:58.768Z,4.57
2023-03-12T13:41:38.945Z,3.80
2023-03-12T13:44:27.091Z,3.63
2023-03-12T13:46:59.283Z,3.40
2023-03-12T13:49:29.056Z,2.93
2023-03-12T13:52:31.287Z,3.60
2023-03-12T13:55:16.386Z,3.20
2023-03-12T13:57:48.297Z,3.33
2023-03-12T14:00:25.622Z,3.43
2023-03-12T14:02:59.353Z,3.40
2023-03-12T14:05:28.554Z,3.00
2023-03-12T14:08:11.124Z,3.03
2023-03-12T14:11:19.071Z,3.10
2023-03-12T14:14:13.928Z,2.80
2023-03-12T14:16:54.464Z,4.90
2023-03-12T14:19:30.605Z,3.50
2023-03-12T14:22:03.244Z,4.67
2023-03-12T14:24:33.286Z,3.50
2023-03-12T14:27:02.638Z,5.47
2023-03-12T14:29:36.952Z,5.13
2023-03-12T14:32:17.395Z,5.10
2023-03-12T14:34:50.028Z,3.47
2023-03-12T14:37:25.231Z,3.30
2023-03-12T14:39:57.670Z,4.40
2023-03-12T14:42:30.321Z,2.93
2023-03-12T14:45:10.821Z,3.00
2023-03-12T14:47:42.787Z,3.20
2023-03-12T14:50:23.375Z,4.17
2023-03-12T14:52:51.323Z,3.90
2023-03-12T14:55:25.288Z,3.70
2023-03-12T14:58:07.522Z,3.67
2023-03-12T15:00:34.934Z,3.70
2023-03-12T15:03:05.684Z,3.47
2023-03-12T15:05:34.924Z,3.13
2023-03-12T15:08:04.591Z,3.67
2023-03-12T15:10:33.108Z,3.60
2023-03-12T15:13:03.135Z,3.80
2023-03-12T15:15:40.405Z,3.77
2023-03-12T15:18:20.933Z,3.33
2023-03-12T15:20:49.332Z,3.70
2023-03-12T15:23:19.017Z,3.33
2023-03-12T15:25:46.607Z,3.40
2023-03-12T15:28:18.483Z,4.43
2023-03-12T15:30:45.772Z,4.37
2023-03-12T15:33:16.083Z,6.80
2023-03-12T15:36:00.936Z,9.60
2023-03-12T15:38:29.144Z,12.43
2023-03-12T15:41:01.319Z,5.33
2023-03-12T15:43:28.826Z,3.50
2023-03-12T15:46:05.110Z,3.47
2023-03-12T15:48:40.348Z,2.60
2023-03-12T15:51:26.005Z,2.40
2023-03-12T15:54:19.595Z,2.33
2023-03-12T15:56:46.936Z,2.77
2023-03-12T15:59:16.923Z,2.83
2023-03-12T16:01:46.987Z,2.57
2023-03-12T16:04:14.247Z,2.70
2023-03-12T16:06:44.592Z,2.60
2023-03-12T16:09:20.254Z,2.50
2023-03-12T16:11:48.060Z,3.13
2023-03-12T16:14:17.679Z,3.13
2023-03-12T16:16:45.761Z,3.20
2023-03-12T16:19:18.892Z,3.17
2023-03-12T16:21:46.311Z,3.70
2023-03-12T16:24:16.680Z,3.73
2023-03-12T16:26:57.049Z,3.47
2023-03-12T16:29:35.142Z,3.43
2023-03-12T16:32:09.670Z,3.33
2023-03-12T16:34:37.448Z,4.07
2023-03-12T16:37:04.655Z,3.70
2023-03-12T16:39:33.475Z,4.40
2023-03-12T16:42:02.018Z,4.27
2023-03-12T16:44:32.583Z,3.80
2023-03-12T16:47:01.300Z,3.93
2023-03-12T16:49:28.683Z,3.60
2023-03-12T16:51:55.989Z,4.00
2023-03-12T16:54:23.161Z,5.33
2023-03-12T16:56:51.049Z,4.93
2023-03-12T16:59:25.678Z,4.07
2023-03-12T17:01:53.581Z,4.70
2023-03-12T17:04:20.851Z,4.43
2023-03-12T17:06:48.164Z,4.37
2023-03-12T17:09:15.588Z,4.23
2023-03-12T17:11:43.428Z,4.53
2023-03-12T17:14:22.617Z,3.67
2023-03-12T17:16:50.970Z,4.43
2023-03-12T17:19:18.151Z,3.27
2023-03-12T17:21:46.036Z,3.53
2023-03-12T17:24:14.444Z,3.47
2023-03-12T17:26:43.741Z,3.90
2023-03-12T17:29:10.964Z,3.73
2023-03-12T17:31:38.276Z,4.23
2023-03-12T17:34:05.537Z,4.27
2023-03-12T17:36:37.782Z,4.50
2023-03-12T17:39:05.854Z,3.87
2023-03-12T17:41:33.966Z,3.97
2023-03-12T17:44:02.428Z,4.30
2023-03-12T17:46:31.277Z,4.43
2023-03-12T17:48:58.756Z,4.60
2023-03-12T17:51:26.160Z,4.40
2023-03-12T17:53:53.348Z,4.70
2023-03-12T17:56:20.664Z,4.77
2023-03-12T17:58:48.506Z,4.50
2023-03-12T18:01:17.146Z,4.47
2023-03-12T18:03:44.784Z,4.27
2023-03-12T18:06:12.679Z,4.17
2023-03-12T18:08:40.129Z,4.30
2023-03-12T18:11:07.657Z,4.50
2023-03-12T18:13:35.050Z,4.47
2023-03-12T18:16:02.409Z,4.40
2023-03-12T18:18:29.923Z,3.67
2023-03-12T18:20:57.204Z,5.23
2023-03-12T18:23:26.006Z,4.90
2023-03-12T18:25:53.274Z,4.33
2023-03-12T18:28:21.099Z,3.83
2023-03-12T18:30:48.940Z,4.63
2023-03-12T18:33:17.103Z,5.53
2023-03-12T18:35:45.116Z,4.70
2023-03-12T18:38:12.776Z,5.17
2023-03-12T18:40:40.068Z,5.00
2023-03-12T18:43:08.010Z,4.80
2023-03-12T18:45:35.199Z,6.27
2023-03-12T18:48:02.424Z,6.93
2023-03-12T18:50:29.683Z,6.93
2023-03-12T18:52:59.090Z,5.03
2023-03-12T18:55:26.696Z,5.13
2023-03-12T18:57:54.019Z,4.60
2023-03-12T19:00:21.725Z,4.00
2023-03-12T19:02:49.100Z,4.30
2023-03-12T19:05:17.550Z,4.37
2023-03-12T19:07:44.835Z,4.80
2023-03-12T19:10:13.147Z,4.10
2023-03-12T19:12:51.356Z,4.10
2023-03-12T19:15:19.604Z,4.33
2023-03-12T19:17:47.113Z,4.07
2023-03-12T19:20:14.504Z,4.63
2023-03-12T19:22:42.018Z,4.33
2023-03-12T19:25:09.519Z,4.53
2023-03-12T19:27:37.256Z,5.00
2023-03-12T19:30:05.660Z,4.43
2023-03-12T19:32:42.566Z,5.90
2023-03-12T19:35:12.385Z,8.53
2023-03-12T19:37:39.617Z,7.83
2023-03-12T19:40:08.008Z,7.43
2023-03-12T19:42:35.421Z,7.00
2023-03-12T19:45:02.674Z,7.20
2023-03-12T19:47:36.150Z,6.37
2023-03-12T19:50:03.724Z,6.47
2023-03-12T19:52:30.881Z,5.80
2023-03-12T19:55:04.747Z,6.10
2023-03-12T19:57:36.395Z,6.67
2023-03-12T20:00:09.862Z,6.60
2023-03-12T20:02:38.935Z,5.93
2023-03-12T20:05:07.640Z,6.00
2023-03-12T20:07:35.963Z,6.00
2023-03-12T20:10:06.037Z,4.27
2023-03-12T20:12:33.628Z,3.77
2023-03-12T20:15:00.877Z,3.83
2023-03-12T20:17:28.013Z,4.00
2023-03-12T20:19:56.124Z,3.93
2023-03-12T20:22:26.381Z,3.43
2023-03-12T20:24:54.087Z,3.50
2023-03-12T20:27:22.597Z,4.10
2023-03-12T20:29:50.956Z,4.27
2023-03-12T20:32:21.319Z,4.20
2023-03-12T20:34:48.559Z,4.67
2023-03-12T20:37:15.804Z,5.03
2023-03-12T20:39:43.335Z,5.50
2023-03-12T20:42:10.549Z,7.00
2023-03-12T20:44:37.724Z,6.50
2023-03-12T20:47:06.155Z,7.00
2023-03-12T20:49:35.118Z,7.40
2023-03-12T20:52:03.088Z,7.90
2023-03-12T20:54:30.591Z,8.03
2023-03-12T20:56:59.105Z,8.87
2023-03-12T20:59:26.382Z,8.10
2023-03-12T21:01:53.673Z,8.70
2023-03-12T21:04:21.049Z,9.33
2023-03-12T21:06:51.852Z,8.80
2023-03-12T21:09:21.642Z,11.03
2023-03-12T21:11:50.882Z,10.37
2023-03-12T21:14:19.095Z,9.90
2023-03-12T21:16:46.637Z,9.33
2023-03-12T21:19:13.872Z,8.90
2023-03-12T21:21:41.585Z,8.77
2023-03-12T21:24:08.796Z,8.90
2023-03-12T21:26:36.101Z,9.20
2023-03-12T21:29:04.639Z,11.97
2023-03-12T21:31:31.883Z,10.57
2023-03-12T21:33:59.491Z,11.40
2023-03-12T21:36:27.244Z,9.40
2023-03-12T21:38:54.435Z,9.20
2023-03-12T21:41:21.994Z,8.60
2023-03-12T21:43:49.266Z,8.17
2023-03-12T21:46:24.980Z,9.10
2023-03-12T21:48:52.507Z,9.87
2023-03-12T21:51:19.807Z,8.80
2023-03-12T21:53:47.230Z,8.17
2023-03-12T21:56:14.505Z,8.17
2023-03-12T21:58:44.367Z,10.50
2023-03-12T22:01:13.454Z,10.63
2023-03-12T22:03:42.713Z,10.77
2023-03-12T22:06:11.260Z,11.40
2023-03-12T22:08:38.829Z,11.03
2023-03-12T22:11:07.618Z,10.63
2023-03-12T22:13:34.906Z,11.87
2023-03-12T22:16:06.971Z,18.90
2023-03-12T22:18:38.236Z,22.53
2023-03-12T22:21:07.738Z,23.03
2023-03-12T22:23:36.523Z,18.97
2023-03-12T22:26:06.677Z,14.50
2023-03-12T22:28:35.303Z,12.03
2023-03-12T22:31:07.932Z,9.33
2023-03-12T22:33:36.514Z,6.83
2023-03-12T22:36:09.691Z,6.37
2023-03-12T22:38:38.154Z,6.47
2023-03-12T22:41:17.400Z,6.67
2023-03-12T22:43:45.631Z,6.13
2023-03-12T22:46:14.133Z,6.37
2023-03-12T22:48:41.391Z,6.93
2023-03-12T22:51:08.870Z,6.37
2023-03-12T22:53:37.062Z,6.13
2023-03-12T22:56:07.454Z,5.57
2023-03-12T22:58:35.457Z,5.30
2023-03-12T23:01:05.370Z,5.90
2023-03-12T23:03:34.249Z,4.90
2023-03-12T23:06:04.065Z,5.53
2023-03-12T23:08:31.604Z,5.50
2023-03-12T23:11:01.805Z,6.03
2023-03-12T23:13:31.864Z,6.60
2023-03-12T23:16:07.649Z,5.70
2023-03-12T23:18:35.878Z,5.43
2023-03-12T23:21:09.511Z,5.27
2023-03-12T23:23:39.679Z,5.27
2023-03-12T23:26:08.252Z,5.63
2023-03-12T23:28:35.505Z,5.40
2023-03-12T23:31:05.297Z,5.60
2023-03-12T23:33:33.460Z,5.30
2023-03-12T23:36:06.448Z,5.43
2023-03-12T23:38:37.317Z,5.20
2023-03-12T23:41:13.539Z,5.47
2023-03-12T23:43:41.205Z,5.70
2023-03-12T23:46:09.942Z,5.13
2023-03-12T23:48:39.133Z,5.20
2023-03-12T23:51:15.285Z,5.83
2023-03-12T23:53:44.799Z,5.80
2023-03-12T23:56:15.272Z,6.00
2023-03-12T23:58:44.082Z,5.20
